createdAt,value
2023-01-13T00:01:17.761Z,98524.70
2023-01-13T00:03:44.855Z,98528.52
2023-01-13T00:06:16.842Z,98529.17
2023-01-13T00:08:43.827Z,98531.33
2023-01-13T00:11:11.659Z,98529.11
2023-01-13T00:13:39.279Z,98532.52
2023-01-13T00:16:10.539Z,98534.20
2023-01-13T00:18:37.654Z,98540.08
2023-01-13T00:21:31.982Z,98539.20
2023-01-13T00:23:59.455Z,98543.26
2023-01-13T00:26:27.835Z,98541.61
2023-01-13T00:28:58.911Z,98538.25
2023-01-13T00:31:26.589Z,98538.08
2023-01-13T00:33:53.902Z,98541.39
2023-01-13T00:36:21.006Z,98546.26
2023-01-13T00:38:48.220Z,98544.94
2023-01-13T00:41:19.581Z,98543.81
2023-01-13T00:43:46.968Z,98541.65
2023-01-13T00:46:16.444Z,98542.95
2023-01-13T00:48:43.462Z,98545.94
2023-01-13T00:51:18.426Z,98546.30
2023-01-13T00:53:47.087Z,98543.37
2023-01-13T00:56:16.704Z,98539.83
2023-01-13T00:58:45.598Z,98540.59
2023-01-13T01:01:18.140Z,98534.21
2023-01-13T01:03:47.870Z,98530.15
2023-01-13T01:06:19.247Z,98525.52
2023-01-13T01:08:46.200Z,98519.22
2023-01-13T01:11:18.115Z,98514.37
2023-01-13T01:13:45.174Z,98522.11
2023-01-13T01:16:14.717Z,98528.52
2023-01-13T01:18:43.289Z,98522.33
2023-01-13T01:21:10.408Z,98519.97
2023-01-13T01:23:38.411Z,98516.56
2023-01-13T01:26:07.677Z,98513.11
2023-01-13T01:28:35.140Z,98509.96
2023-01-13T01:31:13.473Z,98512.37
2023-01-13T01:33:43.410Z,98512.88
2023-01-13T01:36:11.588Z,98512.73
2023-01-13T01:38:38.655Z,98510.70
2023-01-13T01:41:05.927Z,98510.45
2023-01-13T01:44:08.328Z,98506.90
2023-01-13T01:46:40.216Z,98501.90
2023-01-13T01:49:13.148Z,98495.92
2023-01-13T01:51:50.542Z,98493.98
2023-01-13T01:54:20.495Z,98491.13
2023-01-13T01:56:47.536Z,98492.96
2023-01-13T01:59:14.556Z,98493.64
2023-01-13T02:01:41.843Z,98488.80
2023-01-13T02:04:17.287Z,98489.10
2023-01-13T05:30:57.317Z,98495.13
2023-01-13T05:33:24.380Z,98494.52
2023-01-13T05:35:51.254Z,98495.79
2023-01-13T05:38:18.863Z,98496.04
2023-01-13T05:41:04.595Z,98493.29
2023-01-13T05:43:33.114Z,98492.23
2023-01-13T05:46:01.974Z,98492.19
2023-01-13T05:48:36.953Z,98491.88
2023-01-13T05:51:04.938Z,98486.05
2023-01-13T05:53:32.072Z,98486.65
2023-01-13T05:55:59.118Z,98490.89
2023-01-13T05:58:27.033Z,98494.48
2023-01-13T06:00:54.187Z,98495.09
2023-01-13T06:03:21.140Z,98503.34
2023-01-13T06:05:48.264Z,98505.94
2023-01-13T06:08:15.366Z,98505.75
2023-01-13T06:10:42.338Z,98508.94
2023-01-13T06:13:09.338Z,98510.34
2023-01-13T06:15:36.239Z,98517.20
2023-01-13T06:18:04.247Z,98522.15
2023-01-13T06:20:31.437Z,98517.66
2023-01-13T06:22:58.439Z,98518.98
2023-01-13T06:25:39.844Z,98516.13
2023-01-13T06:28:06.736Z,98518.70
2023-01-13T06:30:38.888Z,98516.58
2023-01-13T06:33:09.012Z,98515.12
2023-01-13T06:35:36.351Z,98517.47
2023-01-13T06:38:04.135Z,98520.96
2023-01-13T06:40:31.116Z,98523.55
2023-01-13T06:43:17.122Z,98520.52
2023-01-13T06:45:52.744Z,98519.00
2023-01-13T06:48:21.948Z,98515.88
2023-01-13T06:50:48.854Z,98513.02
2023-01-13T06:53:15.978Z,98517.94
2023-01-13T06:55:42.862Z,98516.86
2023-01-13T06:58:09.753Z,98517.93
2023-01-13T07:00:37.539Z,98521.17
2023-01-13T07:03:14.939Z,98521.31
2023-01-13T07:05:43.064Z,98523.67
2023-01-13T07:14:35.491Z,98529.36
2023-01-13T07:17:04.815Z,98529.73
2023-01-13T07:19:31.682Z,98533.81
2023-01-13T07:21:58.553Z,98531.29
2023-01-13T07:24:25.620Z,98531.20
2023-01-13T07:26:52.778Z,98531.16
2023-01-13T07:29:19.829Z,98533.85
2023-01-13T07:31:49.681Z,98538.64
2023-01-13T07:34:16.944Z,98541.42
2023-01-13T07:36:43.870Z,98541.23
2023-01-13T07:39:10.865Z,98541.48
2023-01-13T07:41:56.547Z,98539.41
2023-01-13T07:44:23.486Z,98537.62
2023-01-13T07:46:50.392Z,98538.55
2023-01-13T07:49:17.288Z,98538.50
2023-01-13T07:51:44.266Z,98539.45
2023-01-13T07:54:11.279Z,98540.23
2023-01-13T07:56:38.302Z,98545.23
2023-01-13T07:59:05.293Z,98544.34
2023-01-13T08:01:32.364Z,98545.79
2023-01-13T08:03:59.492Z,98550.85
2023-01-13T08:06:26.653Z,98548.34
2023-01-13T08:08:54.708Z,98552.63
2023-01-13T08:11:23.472Z,98554.98
2023-01-13T08:13:50.773Z,98553.29
2023-01-13T08:16:17.794Z,98554.81
2023-01-13T08:18:44.777Z,98554.11
2023-01-13T08:21:15.307Z,98545.88
2023-01-13T08:23:43.080Z,98546.05
2023-01-13T08:26:11.839Z,98546.25
2023-01-13T08:28:40.637Z,98548.52
2023-01-13T08:31:12.096Z,98548.58
2023-01-13T08:33:39.211Z,98554.95
2023-01-13T08:36:10.180Z,98559.42
2023-01-13T08:38:37.694Z,98559.04
2023-01-13T08:41:16.340Z,98560.95
2023-01-13T08:43:43.985Z,98564.52
2023-01-13T08:46:12.644Z,98561.92
2023-01-13T08:48:43.663Z,98563.98
2023-01-13T08:51:13.726Z,98563.20
2023-01-13T08:53:40.645Z,98567.13
2023-01-13T08:56:11.950Z,98560.92
2023-01-13T08:58:39.306Z,98555.66
2023-01-13T09:01:07.361Z,98553.14
2023-01-13T09:03:34.514Z,98543.05
2023-01-13T09:06:01.464Z,98542.77
2023-01-13T09:08:28.422Z,98541.12
2023-01-13T09:10:55.522Z,98540.26
2023-01-13T09:13:22.432Z,98543.67
2023-01-13T09:15:49.745Z,98543.67
2023-01-13T09:18:16.685Z,98542.98
2023-01-13T09:20:44.675Z,98541.90
2023-01-13T09:23:11.760Z,98542.60
2023-01-13T09:25:39.113Z,98536.69
2023-01-13T09:28:06.286Z,98537.98
2023-01-13T09:30:33.587Z,98537.53
2023-01-13T09:33:19.439Z,98534.63
2023-01-13T09:35:46.382Z,98525.29
2023-01-13T09:38:13.185Z,98526.58
2023-01-13T09:40:41.348Z,98525.55
2023-01-13T09:43:34.593Z,98518.15
2023-01-13T09:46:44.591Z,98519.30
2023-01-13T09:49:20.400Z,98514.29
2023-01-13T09:52:23.654Z,98510.45
2023-01-13T09:54:56.105Z,98509.81
2023-01-13T09:57:24.941Z,98507.23
2023-01-13T09:59:51.915Z,98507.92
2023-01-13T10:02:31.010Z,98503.86
2023-01-13T14:34:32.498Z,98420.02
2023-01-13T14:37:01.513Z,98425.39
2023-01-13T14:39:40.403Z,98430.13
2023-01-13T14:42:13.714Z,98436.02
2023-01-13T14:44:44.773Z,98431.08
2023-01-13T14:47:32.434Z,98428.75
2023-01-13T14:50:31.598Z,98422.99
2023-01-13T14:53:00.525Z,98426.27
2023-01-13T14:55:34.667Z,98428.17
2023-01-13T14:58:34.101Z,98428.39
2023-01-13T15:01:30.027Z,98424.80
2023-01-13T15:04:18.527Z,98425.33
2023-01-13T15:06:46.858Z,98422.67
2023-01-13T15:09:18.972Z,98427.81
2023-01-13T15:11:47.755Z,98429.98
2023-01-13T15:14:15.991Z,98428.13
2023-01-13T15:16:42.854Z,98432.27
2023-01-13T15:19:09.790Z,98433.77
2023-01-13T15:21:42.696Z,98434.98
2023-01-13T15:24:10.121Z,98438.64
2023-01-13T15:26:37.633Z,98439.41
2023-01-13T15:29:05.448Z,98436.99
2023-01-13T15:31:32.992Z,98437.33
2023-01-13T15:34:00.960Z,98434.13
2023-01-13T15:36:29.835Z,98434.91
2023-01-13T15:38:57.020Z,98433.05
2023-01-13T15:41:42.791Z,98430.78
2023-01-13T15:44:32.662Z,98425.83
2023-01-13T15:47:01.188Z,98428.15
2023-01-13T15:49:35.323Z,98433.09
2023-01-13T15:52:04.429Z,98433.48
2023-01-13T15:54:31.539Z,98430.64
2023-01-13T15:56:58.446Z,98427.59
2023-01-13T15:59:27.821Z,98430.91
2023-01-13T16:01:56.475Z,98431.48
2023-01-13T16:04:23.758Z,98434.09
2023-01-13T16:06:52.288Z,98436.21
2023-01-13T16:15:32.572Z,98432.90
2023-01-13T16:18:01.199Z,98437.64
2023-01-13T16:20:28.126Z,98443.39
2023-01-13T16:22:56.197Z,98444.63
2023-01-13T16:25:25.256Z,98448.24
2023-01-13T16:27:54.947Z,98448.25
2023-01-13T16:30:35.864Z,98447.20
2023-01-13T16:33:03.407Z,98448.58
2023-01-13T16:35:36.597Z,98452.61
2023-01-13T16:38:23.551Z,98446.21
2023-01-13T16:40:52.450Z,98447.20
2023-01-13T16:43:19.821Z,98444.90
2023-01-13T16:45:47.269Z,98446.91
2023-01-13T16:48:19.053Z,98443.47
2023-01-13T16:50:46.012Z,98439.41
2023-01-13T16:53:12.896Z,98442.60
2023-01-13T16:55:40.317Z,98441.77
2023-01-13T16:58:07.697Z,98447.08
2023-01-13T17:00:34.577Z,98442.31
2023-01-13T17:03:02.884Z,98442.54
2023-01-13T17:05:29.808Z,98446.17
2023-01-13T17:07:57.587Z,98448.02
2023-01-13T17:10:24.911Z,98448.64
2023-01-13T17:12:51.934Z,98447.06
2023-01-13T17:15:21.339Z,98447.82
2023-01-13T17:17:52.250Z,98445.13
2023-01-13T17:20:19.487Z,98449.13
2023-01-13T17:22:49.715Z,98450.38
2023-01-13T17:25:21.930Z,98446.61
2023-01-13T17:27:48.933Z,98446.80
2023-01-13T17:30:15.809Z,98448.69
2023-01-13T17:32:42.699Z,98447.91
2023-01-13T17:35:11.031Z,98446.23
2023-01-13T17:37:38.103Z,98448.95
2023-01-13T17:40:05.596Z,98445.13
2023-01-13T17:42:32.605Z,98443.98
2023-01-13T17:44:59.511Z,98451.14
2023-01-13T17:47:28.865Z,98448.27
2023-01-13T17:49:59.353Z,98450.42
2023-01-13T17:52:26.303Z,98450.88
2023-01-13T17:54:54.725Z,98444.35
2023-01-13T17:57:25.400Z,98446.54
2023-01-13T17:59:52.242Z,98446.60
2023-01-13T18:02:19.269Z,98439.98
2023-01-13T18:04:47.895Z,98435.54
2023-01-13T21:20:04.220Z,98437.19
2023-01-13T21:22:31.639Z,98436.30
2023-01-13T21:24:58.857Z,98435.08
2023-01-13T21:27:25.869Z,98437.88
2023-01-13T21:29:52.871Z,98443.46
2023-01-13T21:32:19.944Z,98447.80
2023-01-13T21:34:46.823Z,98448.71
2023-01-13T21:37:15.424Z,98444.34
2023-01-13T21:39:43.162Z,98436.52
2023-01-13T21:42:32.314Z,98434.68
2023-01-13T21:45:18.168Z,98433.31
2023-01-13T21:47:52.304Z,98439.42
2023-01-13T21:50:20.959Z,98435.30
2023-01-13T21:52:48.502Z,98440.64
2023-01-13T21:55:25.706Z,98429.25
2023-01-13T21:58:03.731Z,98428.58
2023-01-13T22:00:31.321Z,98422.88
2023-01-13T22:03:01.119Z,98429.92
2023-01-13T22:05:28.112Z,98439.00
2023-01-13T22:07:55.045Z,98433.23
2023-01-13T22:10:23.475Z,98442.71
2023-01-13T22:12:54.679Z,98446.54
2023-01-13T22:15:22.484Z,98441.20
2023-01-13T22:17:53.212Z,98445.33
2023-01-13T22:20:21.755Z,98453.30
2023-01-13T22:22:48.889Z,98460.58
2023-01-13T22:25:16.421Z,98451.45
2023-01-13T22:27:44.874Z,98445.77
2023-01-13T22:30:18.202Z,98444.73
2023-01-13T22:32:45.999Z,98452.85
2023-01-13T22:35:13.751Z,98456.95
2023-01-13T22:37:40.837Z,98455.48
2023-01-13T22:40:08.918Z,98457.11
2023-01-13T22:42:40.065Z,98461.40
2023-01-13T22:45:08.517Z,98463.17
2023-01-13T22:47:35.786Z,98456.57
2023-01-13T22:50:02.896Z,98458.77
2023-01-13T22:52:30.462Z,98456.77
2023-01-13T22:54:57.912Z,98458.21
2023-01-13T22:57:24.811Z,98459.33
2023-01-13T22:59:51.787Z,98460.89
2023-01-13T23:02:18.659Z,98459.46
2023-01-13T23:04:45.768Z,98455.00
2023-01-13T23:07:12.685Z,98454.84
2023-01-13T23:09:42.996Z,98453.26
2023-01-13T23:12:09.896Z,98457.13
2023-01-13T23:14:36.792Z,98460.27
2023-01-13T23:17:04.541Z,98458.14
2023-01-13T23:19:31.533Z,98454.77
2023-01-13T23:21:58.525Z,98454.30
2023-01-13T23:24:26.155Z,98459.13
2023-01-13T23:26:53.277Z,98457.07
2023-01-13T23:29:20.278Z,98456.68
2023-01-13T23:31:47.342Z,98454.62
2023-01-13T23:34:14.185Z,98458.73
2023-01-13T23:36:43.531Z,98457.73
2023-01-13T23:39:10.509Z,98457.73
2023-01-13T23:41:37.511Z,98459.35
2023-01-13T23:44:04.465Z,98455.66
2023-01-13T23:46:32.856Z,98457.30
2023-01-13T23:48:59.865Z,98463.62
2023-01-13T23:51:27.735Z,98465.80
2023-01-13T23:53:54.620Z,98465.25
2023-01-13T23:56:23.730Z,98462.80
2023-01-13T23:58:50.793Z,98463.48
